Time;durP1;ratioP1;P1;durP2;ratioP2;P2;SDS_P1;SDS_P2;PMS_P1;PMS_P2;Temp;Humidity;BMP_temperature;BMP_pressure;BME280_temperature;BME280_humidity;BME280_pressure;Samples;Min_cycle;Max_cycle;Signal;HPM_P1;HPM_P2
2022/12/30 00:02:02;;;;;;;13.40;3.50;;;7.30;99.90;;;;;;12586202;28;20055;-85
2022/12/30 00:08:04;;;;;;;12.65;2.30;;;7.30;99.90;;;;;;12584497;28;20044;-84
2022/12/30 00:33:28;;;;;;;11.25;2.00;;;7.10;99.90;;;;;;12587804;28;20040;-85
2022/12/30 00:39:30;;;;;;;19.45;2.45;;;7.20;99.90;;;;;;12590229;28;20127;-84
2022/12/30 00:45:32;;;;;;;14.05;2.90;;;7.10;99.90;;;;;;12587282;28;20432;-84
2022/12/30 00:57:55;;;;;;;16.20;3.08;;;7.10;99.90;;;;;;12593237;28;20093;-85
2022/12/30 01:03:56;;;;;;;11.07;2.75;;;7.10;99.90;;;;;;12575439;28;20048;-84
2022/12/30 01:09:58;;;;;;;13.63;2.47;;;7.10;99.90;;;;;;12563639;28;20075;-85
2022/12/30 01:16:26;;;;;;;12.35;2.88;;;7.20;99.90;;;;;;12577174;28;20504;-85
2022/12/30 01:22:28;;;;;;;12.60;2.20;;;7.20;99.90;;;;;;12573832;28;20052;-84
2022/12/30 01:28:32;;;;;;;12.43;2.45;;;7.10;99.90;;;;;;12592865;28;20064;-84
2022/12/30 01:34:34;;;;;;;10.13;2.30;;;7.20;99.90;;;;;;12566003;28;20052;-85
2022/12/30 01:40:40;;;;;;;11.20;2.30;;;7.20;99.90;;;;;;12567138;28;20048;-84
2022/12/30 01:46:42;;;;;;;7.53;2.20;;;7.20;99.90;;;;;;12560820;28;20051;-85
2022/12/30 01:53:11;;;;;;;16.83;2.95;;;7.10;99.90;;;;;;12589357;28;20076;-85
2022/12/30 01:59:21;;;;;;;15.25;2.45;;;7.20;99.90;;;;;;12574331;28;20456;-85
2022/12/30 02:05:26;;;;;;;14.35;2.58;;;7.20;99.90;;;;;;12574393;28;20053;-84
2022/12/30 02:11:29;;;;;;;12.75;2.53;;;7.10;99.90;;;;;;12578288;28;20086;-85
2022/12/30 02:17:41;;;;;;;15.52;2.65;;;7.20;99.90;;;;;;12583870;28;20412;-85
2022/12/30 02:24:12;;;;;;;15.02;2.00;;;7.10;99.90;;;;;;12596344;28;20445;-85
2022/12/30 02:30:22;;;;;;;12.85;2.25;;;7.00;99.90;;;;;;12566215;28;20064;-84
2022/12/30 02:36:42;;;;;;;13.55;2.45;;;7.00;99.90;;;;;;12578738;28;20040;-85
2022/12/30 02:49:30;;;;;;;14.40;2.03;;;6.90;99.90;;;;;;12585775;28;20520;-84
2022/12/30 02:55:31;;;;;;;15.75;2.72;;;6.80;99.90;;;;;;12574592;28;20048;-85
2022/12/30 03:08:43;;;;;;;9.93;1.95;;;6.90;99.90;;;;;;12545894;28;20044;-84
2022/12/30 03:14:56;;;;;;;17.05;2.35;;;6.90;99.90;;;;;;12591005;28;20051;-85
2022/12/30 03:21:01;;;;;;;15.23;2.03;;;6.90;99.90;;;;;;12579946;28;20176;-85
2022/12/30 03:27:07;;;;;;;11.00;1.88;;;6.90;99.90;;;;;;12575929;28;20041;-85
2022/12/30 03:33:10;;;;;;;13.10;2.20;;;6.90;99.90;;;;;;12574303;28;20568;-84
2022/12/30 03:39:25;;;;;;;15.75;2.35;;;6.80;99.90;;;;;;12578541;28;20091;-85
2022/12/30 03:45:27;;;;;;;13.45;2.80;;;6.70;99.90;;;;;;12567399;28;20512;-84
2022/12/30 03:51:29;;;;;;;13.15;2.00;;;6.60;99.90;;;;;;12573486;28;20052;-85
2022/12/30 03:57:32;;;;;;;10.55;2.30;;;6.60;99.90;;;;;;12582273;28;20496;-84
2022/12/30 04:03:34;;;;;;;12.80;1.90;;;6.50;99.90;;;;;;12597972;28;20033;-85
2022/12/30 04:09:35;;;;;;;13.63;2.05;;;6.30;99.90;;;;;;12590274;28;20040;-84
2022/12/30 04:15:37;;;;;;;9.80;1.85;;;6.30;99.90;;;;;;12575145;28;20132;-85
2022/12/30 04:21:39;;;;;;;10.45;2.00;;;6.10;99.90;;;;;;12588018;28;20097;-83
2022/12/30 04:27:41;;;;;;;11.55;2.08;;;6.10;99.90;;;;;;12600399;28;20722;-84
2022/12/30 04:33:43;;;;;;;12.18;2.20;;;6.00;99.90;;;;;;12573410;28;20484;-84
2022/12/30 04:39:45;;;;;;;11.13;2.30;;;6.10;99.90;;;;;;12575868;28;20049;-84
2022/12/30 04:45:49;;;;;;;14.98;2.70;;;6.10;99.90;;;;;;12572517;28;20477;-84
2022/12/30 04:51:51;;;;;;;11.30;1.80;;;6.10;99.90;;;;;;12568607;28;20048;-84
2022/12/30 04:57:53;;;;;;;15.77;2.10;;;6.10;99.90;;;;;;12563637;28;20059;-84
2022/12/30 05:03:55;;;;;;;13.25;2.95;;;6.10;99.90;;;;;;12597729;28;20041;-84
2022/12/30 05:09:56;;;;;;;10.15;2.05;;;6.10;99.90;;;;;;12576066;28;20064;-84
2022/12/30 05:15:58;;;;;;;13.98;2.88;;;6.10;99.90;;;;;;12569182;28;20048;-84
2022/12/30 05:22:00;;;;;;;13.60;2.03;;;6.10;99.90;;;;;;12594449;28;20086;-84
2022/12/30 05:28:02;;;;;;;14.10;2.33;;;6.00;99.90;;;;;;12566267;28;20490;-84
2022/12/30 05:34:04;;;;;;;11.63;1.80;;;6.00;99.90;;;;;;12551041;28;20135;-84
2022/12/30 05:40:10;;;;;;;14.05;2.00;;;5.90;99.90;;;;;;12562674;28;20048;-84
2022/12/30 05:46:12;;;;;;;12.45;1.88;;;5.80;99.90;;;;;;12577747;28;20041;-84
2022/12/30 05:52:15;;;;;;;17.88;2.60;;;5.80;99.90;;;;;;12563937;28;20055;-83
2022/12/30 05:58:17;;;;;;;14.50;1.52;;;5.70;99.90;;;;;;12567449;28;20052;-84
2022/12/30 06:04:19;;;;;;;13.27;1.98;;;5.70;99.90;;;;;;12558483;28;20044;-84
2022/12/30 06:10:20;;;;;;;15.18;2.30;;;5.60;99.90;;;;;;12571235;28;21714;-83
2022/12/30 06:16:22;;;;;;;9.18;1.70;;;5.60;99.90;;;;;;12565746;28;20063;-84
2022/12/30 06:22:24;;;;;;;8.48;1.60;;;5.50;99.90;;;;;;12584285;28;20552;-83
2022/12/30 06:28:28;;;;;;;11.73;1.83;;;5.40;99.90;;;;;;12577243;28;20041;-84
2022/12/30 06:34:29;;;;;;;20.45;2.10;;;5.40;99.90;;;;;;12580592;28;20053;-84
2022/12/30 06:40:31;;;;;;;15.15;2.03;;;5.40;99.90;;;;;;12581332;28;20055;-84
2022/12/30 06:46:33;;;;;;;13.52;2.42;;;5.40;99.90;;;;;;12556471;28;20090;-84
2022/12/30 06:52:35;;;;;;;15.25;1.90;;;5.40;99.90;;;;;;12567022;28;20517;-84
2022/12/30 06:58:37;;;;;;;12.77;2.22;;;5.40;99.90;;;;;;12581211;28;20131;-83
2022/12/30 07:04:39;;;;;;;17.42;2.65;;;5.40;99.90;;;;;;12575475;28;20037;-84
2022/12/30 07:10:41;;;;;;;12.02;2.38;;;5.40;99.90;;;;;;12583857;28;20118;-84
2022/12/30 07:16:51;;;;;;;13.43;2.22;;;5.30;99.90;;;;;;12571708;28;20049;-84
2022/12/30 07:22:53;;;;;;;13.07;2.75;;;5.30;99.90;;;;;;12569876;28;20074;-84
2022/12/30 07:29:03;;;;;;;12.73;1.92;;;5.30;99.90;;;;;;12581583;28;20078;-84
2022/12/30 07:35:08;;;;;;;11.23;2.03;;;5.30;99.90;;;;;;12594394;28;20049;-84
2022/12/30 07:41:12;;;;;;;12.75;2.10;;;5.30;99.90;;;;;;12588702;28;20139;-85
2022/12/30 07:47:14;;;;;;;12.63;1.70;;;5.30;99.90;;;;;;12573532;28;20106;-84
2022/12/30 07:53:16;;;;;;;13.82;2.35;;;5.30;99.90;;;;;;12598064;28;20048;-84
2022/12/30 07:59:18;;;;;;;12.68;1.95;;;5.30;99.90;;;;;;12567486;28;20125;-83
2022/12/30 08:05:19;;;;;;;10.88;2.33;;;5.40;99.90;;;;;;12592531;28;20134;-84
2022/12/30 08:11:21;;;;;;;11.10;2.38;;;5.40;99.90;;;;;;12591148;28;20041;-84
2022/12/30 08:17:23;;;;;;;12.45;2.40;;;5.50;99.90;;;;;;12572807;28;20454;-84
2022/12/30 08:23:25;;;;;;;11.10;1.80;;;5.50;99.90;;;;;;12572564;28;20476;-84
2022/12/30 08:29:27;;;;;;;7.13;1.65;;;5.60;99.90;;;;;;12589653;28;20044;-84
2022/12/30 08:35:29;;;;;;;8.95;1.33;;;5.60;99.90;;;;;;12578987;28;20658;-85
2022/12/30 08:41:34;;;;;;;11.23;1.75;;;5.80;99.90;;;;;;12590679;28;20037;-84
2022/12/30 08:47:36;;;;;;;7.77;1.33;;;5.90;99.90;;;;;;12570297;28;20044;-85
2022/12/30 08:53:38;;;;;;;11.75;1.60;;;6.00;99.90;;;;;;12561532;28;20064;-85
2022/12/30 08:59:40;;;;;;;12.05;1.70;;;6.10;99.90;;;;;;12586198;28;20059;-84
2022/12/30 09:05:42;;;;;;;11.02;1.70;;;6.10;99.90;;;;;;12584913;28;20040;-83
2022/12/30 09:11:44;;;;;;;13.18;1.80;;;6.20;99.90;;;;;;12589265;28;20159;-84
2022/12/30 09:17:46;;;;;;;8.75;1.60;;;6.20;99.90;;;;;;12568846;28;20047;-84
2022/12/30 09:23:48;;;;;;;7.55;1.20;;;6.30;99.90;;;;;;12587165;28;20084;-85
2022/12/30 09:29:50;;;;;;;11.05;1.35;;;6.30;99.90;;;;;;12574612;28;20142;-84
2022/12/30 09:35:52;;;;;;;9.18;1.48;;;6.30;99.90;;;;;;12564189;28;20063;-85
2022/12/30 09:48:26;;;;;;;6.97;1.50;;;6.50;99.90;;;;;;12584769;28;20087;-84
2022/12/30 09:54:32;;;;;;;7.22;1.60;;;6.60;99.90;;;;;;12567110;28;20055;-84
2022/12/30 10:00:35;;;;;;;5.30;1.20;;;6.70;99.90;;;;;;12579552;28;20053;-86
2022/12/30 10:06:43;;;;;;;6.60;1.20;;;6.80;99.90;;;;;;12590654;28;20057;-84
2022/12/30 10:13:07;;;;;;;8.77;2.13;;;6.80;99.90;;;;;;12564432;28;20055;-84
2022/12/30 10:19:24;;;;;;;6.97;1.30;;;6.90;99.90;;;;;;12588521;28;20122;-85
2022/12/30 10:25:48;;;;;;;6.40;1.60;;;6.90;99.90;;;;;;12584402;28;20040;-84
2022/12/30 10:31:52;;;;;;;5.97;1.40;;;7.00;99.90;;;;;;12562512;28;20545;-85
2022/12/30 10:38:08;;;;;;;12.30;1.60;;;7.00;99.90;;;;;;12562960;28;20048;-85
2022/12/30 10:44:30;;;;;;;7.32;1.50;;;7.10;99.90;;;;;;12584004;28;20413;-85
2022/12/30 10:50:44;;;;;;;9.48;1.60;;;7.00;99.90;;;;;;12562152;28;20036;-85
2022/12/30 10:56:49;;;;;;;5.18;1.50;;;7.00;99.90;;;;;;12566565;28;20139;-85
2022/12/30 11:03:01;;;;;;;7.60;1.48;;;6.90;99.90;;;;;;12587128;28;20044;-84
2022/12/30 11:09:13;;;;;;;11.13;1.40;;;7.00;99.90;;;;;;12566571;28;20072;-86
2022/12/30 11:15:54;;;;;;;5.05;1.00;;;7.10;99.90;;;;;;12579535;28;20041;-85
2022/12/30 11:22:03;;;;;;;7.55;1.40;;;7.20;99.90;;;;;;12558742;28;20040;-84
2022/12/30 11:28:23;;;;;;;9.45;1.50;;;7.40;99.90;;;;;;12565111;28;20488;-84
2022/12/30 11:34:34;;;;;;;7.07;1.52;;;7.50;99.90;;;;;;12566535;28;20044;-85
2022/12/30 11:40:38;;;;;;;10.88;1.52;;;7.60;99.90;;;;;;12570399;28;20051;-84
2022/12/30 11:46:51;;;;;;;5.15;0.80;;;7.60;99.90;;;;;;12582854;28;20444;-85
2022/12/30 11:53:01;;;;;;;4.20;1.20;;;7.70;99.90;;;;;;12554525;28;20052;-84
2022/12/30 11:59:11;;;;;;;10.93;1.60;;;7.80;99.90;;;;;;12579434;28;20175;-85
2022/12/30 12:05:40;;;;;;;4.90;1.20;;;7.90;99.90;;;;;;12579918;28;20065;-84
2022/12/30 12:11:45;;;;;;;8.70;1.20;;;7.90;99.90;;;;;;12573030;28;20135;-84
2022/12/30 12:18:13;;;;;;;8.60;1.73;;;7.80;99.90;;;;;;12589122;28;20076;-84
2022/12/30 12:24:29;;;;;;;6.10;1.13;;;7.90;99.90;;;;;;12596057;28;20044;-84
2022/12/30 12:31:25;;;;;;;5.07;1.30;;;7.90;99.90;;;;;;12568354;28;20485;-84
2022/12/30 12:37:41;;;;;;;4.65;1.20;;;7.90;99.90;;;;;;12564414;28;20048;-85
2022/12/30 12:44:14;;;;;;;4.53;1.58;;;8.00;99.90;;;;;;12564873;28;20033;-86
2022/12/30 12:50:29;;;;;;;10.40;1.35;;;8.00;99.90;;;;;;12567441;28;20131;-85
2022/12/30 12:56:43;;;;;;;;;;;8.00;99.90;;;;;;12568896;28;20055;-84
2022/12/30 13:03:15;;;;;;;5.22;1.08;;;8.10;99.90;;;;;;12594331;28;19927;-84
2022/12/30 13:09:32;;;;;;;4.82;1.13;;;8.00;99.90;;;;;;12566448;28;20583;-84
2022/12/30 13:15:42;;;;;;;6.65;1.30;;;8.00;99.90;;;;;;12572352;28;20079;-84
2022/12/30 13:21:47;;;;;;;4.65;1.08;;;8.00;99.90;;;;;;12584271;28;20045;-84
2022/12/30 13:27:54;;;;;;;6.00;1.02;;;7.90;99.90;;;;;;12581655;28;20056;-85
2022/12/30 13:34:33;;;;;;;5.80;1.10;;;8.00;99.90;;;;;;12568546;28;20041;-85
2022/12/30 13:40:51;;;;;;;4.30;0.88;;;8.00;99.90;;;;;;12569749;28;20041;-83
2022/12/30 13:46:54;;;;;;;3.22;0.98;;;8.00;99.90;;;;;;12586577;28;20048;-84
2022/12/30 13:52:58;;;;;;;6.30;1.20;;;8.00;99.90;;;;;;12586402;28;20193;-84
2022/12/30 13:59:01;;;;;;;3.75;1.08;;;8.00;99.90;;;;;;12567530;28;20120;-84
2022/12/30 14:05:13;;;;;;;5.07;0.98;;;8.00;99.90;;;;;;12564412;28;20044;-85
2022/12/30 14:11:16;;;;;;;4.07;0.93;;;8.10;99.90;;;;;;12564718;28;20075;-84
2022/12/30 14:17:28;;;;;;;7.40;1.20;;;8.00;99.90;;;;;;12568363;28;20064;-85
2022/12/30 14:23:51;;;;;;;5.25;1.20;;;8.10;99.90;;;;;;12559968;28;20083;-84
2022/12/30 14:30:24;;;;;;;12.80;1.27;;;8.10;99.90;;;;;;12583919;28;20094;-86
2022/12/30 14:36:29;;;;;;;6.63;1.38;;;8.20;99.90;;;;;;12566594;28;20500;-85
2022/12/30 14:42:31;;;;;;;;;;;8.10;99.90;;;;;;12580126;28;20032;-84
2022/12/30 14:49:00;;;;;;;5.53;1.13;;;8.10;99.90;;;;;;12572938;28;19921;-85
2022/12/30 14:55:20;;;;;;;5.07;1.02;;;8.20;99.90;;;;;;12572608;28;20147;-85
2022/12/30 15:01:23;;;;;;;3.95;1.50;;;8.20;99.90;;;;;;12577395;28;20056;-84
2022/12/30 15:07:32;;;;;;;5.50;1.27;;;8.40;99.90;;;;;;12579912;28;20052;-84
2022/12/30 15:13:46;;;;;;;6.47;1.30;;;8.50;99.90;;;;;;12582048;28;20044;-85
2022/12/30 15:19:48;;;;;;;4.63;1.10;;;8.40;99.90;;;;;;12587900;28;20071;-86
2022/12/30 15:26:04;;;;;;;6.07;1.02;;;8.50;99.90;;;;;;12581579;28;20059;-85
2022/12/30 15:32:29;;;;;;;4.30;1.13;;;8.50;99.90;;;;;;12571830;28;20135;-85
2022/12/30 15:38:40;;;;;;;4.32;0.90;;;8.20;99.90;;;;;;12582890;28;21519;-84
2022/12/30 15:44:43;;;;;;;4.88;0.90;;;8.10;99.90;;;;;;12565669;28;20519;-85
2022/12/30 15:50:45;;;;;;;5.15;0.90;;;8.10;99.90;;;;;;12590899;28;20044;-84
2022/12/30 15:56:48;;;;;;;2.17;0.75;;;8.00;99.90;;;;;;12592432;28;20048;-86
2022/12/30 16:02:55;;;;;;;3.13;1.00;;;7.90;99.90;;;;;;12595596;28;20063;-85
2022/12/30 16:08:58;;;;;;;3.25;1.00;;;7.90;99.90;;;;;;12602010;28;20052;-85
2022/12/30 16:15:08;;;;;;;3.20;0.90;;;7.80;99.90;;;;;;12579292;28;20422;-86
2022/12/30 16:21:10;;;;;;;8.60;1.10;;;7.80;99.90;;;;;;12576743;28;20135;-84
2022/12/30 16:27:16;;;;;;;5.63;1.10;;;7.70;99.90;;;;;;12573827;28;20070;-85
2022/12/30 16:33:19;;;;;;;3.35;1.00;;;7.90;99.90;;;;;;12556416;28;20078;-86
2022/12/30 16:39:21;;;;;;;1.92;0.90;;;7.90;99.90;;;;;;12587863;28;20123;-85
2022/12/30 16:45:23;;;;;;;2.22;1.10;;;7.80;99.90;;;;;;12573345;28;20555;-86
2022/12/30 16:51:47;;;;;;;5.22;1.08;;;7.70;99.90;;;;;;12571566;28;20514;-85
2022/12/30 16:57:49;;;;;;;1.88;1.00;;;7.60;99.90;;;;;;12583527;28;20056;-85
2022/12/30 17:03:51;;;;;;;2.72;1.00;;;7.50;99.90;;;;;;12591569;28;20090;-85
2022/12/30 17:16:19;;;;;;;3.53;1.15;;;7.50;99.90;;;;;;12589349;28;20048;-87
2022/12/30 17:22:24;;;;;;;3.63;1.13;;;7.40;99.90;;;;;;12564458;28;20047;-86
2022/12/30 17:28:25;;;;;;;2.58;1.10;;;7.40;99.90;;;;;;12560761;28;20048;-87
2022/12/30 17:34:27;;;;;;;6.00;1.23;;;7.40;99.90;;;;;;12580824;28;20048;-87
2022/12/30 17:40:29;;;;;;;2.72;1.33;;;7.40;99.90;;;;;;12561418;28;20037;-87
2022/12/30 17:46:31;;;;;;;3.30;1.30;;;7.40;99.90;;;;;;12588196;28;20053;-87
2022/12/30 17:52:33;;;;;;;5.70;1.55;;;7.40;99.90;;;;;;12579571;28;20053;-86
2022/12/30 17:58:35;;;;;;;2.63;1.30;;;7.50;99.90;;;;;;12586079;28;20061;-86
2022/12/30 18:04:37;;;;;;;2.15;1.30;;;7.50;99.90;;;;;;12568115;28;20037;-87
2022/12/30 18:10:40;;;;;;;4.20;1.30;;;7.60;99.90;;;;;;12581259;28;20549;-86
2022/12/30 18:16:42;;;;;;;2.88;1.13;;;7.60;99.90;;;;;;12578309;28;20056;-86
2022/12/30 18:22:44;;;;;;;2.22;1.48;;;7.60;99.90;;;;;;12569814;28;20048;-86
2022/12/30 18:28:46;;;;;;;2.53;1.17;;;7.70;99.90;;;;;;12562640;28;20041;-86
2022/12/30 18:34:48;;;;;;;1.75;0.90;;;7.80;99.90;;;;;;12563107;28;20053;-86
2022/12/30 18:40:50;;;;;;;1.67;1.10;;;7.90;99.90;;;;;;12586836;28;20052;-86
2022/12/30 18:46:57;;;;;;;2.35;1.10;;;8.00;99.90;;;;;;12577698;28;20101;-86
2022/12/30 18:52:59;;;;;;;1.77;0.75;;;8.00;99.90;;;;;;12583123;28;20047;-86
2022/12/30 18:59:01;;;;;;;1.50;0.80;;;8.20;99.90;;;;;;12581104;28;20055;-86
2022/12/30 19:05:03;;;;;;;3.13;0.80;;;8.30;99.90;;;;;;12590083;28;20385;-86
2022/12/30 19:11:08;;;;;;;1.45;0.70;;;8.50;99.90;;;;;;12564540;28;20059;-86
2022/12/30 19:17:10;;;;;;;1.33;0.95;;;8.60;99.90;;;;;;12568969;28;20055;-85
2022/12/30 19:23:12;;;;;;;1.55;0.60;;;8.80;99.90;;;;;;12566203;28;20071;-86
2022/12/30 19:29:15;;;;;;;2.53;0.70;;;9.00;99.90;;;;;;12586725;28;20519;-87
2022/12/30 19:35:16;;;;;;;1.13;0.50;;;9.10;99.90;;;;;;12547396;28;20056;-86
2022/12/30 19:41:30;;;;;;;1.60;0.73;;;9.20;99.90;;;;;;12552248;28;20045;-87
2022/12/30 19:47:33;;;;;;;1.30;0.68;;;9.30;99.90;;;;;;12537909;28;20045;-86
2022/12/30 19:53:35;;;;;;;1.02;0.70;;;9.40;99.90;;;;;;12557015;28;20048;-87
2022/12/30 19:59:37;;;;;;;1.70;0.80;;;9.70;99.90;;;;;;12538038;28;20045;-87
2022/12/30 20:05:38;;;;;;;1.65;1.00;;;9.90;99.90;;;;;;12542654;28;20037;-88
2022/12/30 20:11:40;;;;;;;1.35;0.85;;;10.30;99.90;;;;;;12558593;28;20049;-88
2022/12/30 20:17:42;;;;;;;1.23;0.77;;;10.20;99.90;;;;;;12554126;28;20144;-87
2022/12/30 20:23:48;;;;;;;1.60;0.90;;;10.20;99.90;;;;;;12544806;28;20045;-87
2022/12/30 20:29:51;;;;;;;2.25;0.95;;;10.20;99.90;;;;;;12535549;28;20195;-86
2022/12/30 20:35:53;;;;;;;1.40;0.90;;;10.40;99.90;;;;;;12591952;28;20098;-87
2022/12/30 20:41:57;;;;;;;1.33;0.80;;;10.50;99.90;;;;;;12563208;28;20049;-87
2022/12/30 20:47:59;;;;;;;2.67;0.90;;;10.50;99.90;;;;;;12562390;28;20385;-86
2022/12/30 20:54:03;;;;;;;1.00;0.70;;;10.60;99.90;;;;;;12560842;28;20048;-87
2022/12/30 21:00:06;;;;;;;2.10;1.13;;;10.60;99.90;;;;;;12584008;28;20485;-87
2022/12/30 21:06:08;;;;;;;1.75;1.00;;;10.70;99.90;;;;;;12593007;28;20412;-87
2022/12/30 21:12:10;;;;;;;1.25;0.90;;;10.70;99.90;;;;;;12582970;28;20036;-87
2022/12/30 21:18:12;;;;;;;3.22;1.00;;;10.80;99.90;;;;;;12590557;28;20044;-87
2022/12/30 21:24:14;;;;;;;1.85;1.10;;;10.80;99.90;;;;;;12583555;28;20393;-86
2022/12/30 21:30:15;;;;;;;1.95;1.50;;;10.90;99.90;;;;;;12565084;28;20100;-87
2022/12/30 21:36:21;;;;;;;2.60;1.55;;;11.00;99.90;;;;;;12563410;28;20048;-87
2022/12/30 22:08:19;;;;;;;1.88;1.45;;;11.50;99.90;;;;;;12437263;28;20202;-87
2022/12/30 22:14:21;;;;;;;2.38;1.70;;;11.40;99.90;;;;;;12583927;28;20051;-87
2022/12/30 22:20:23;;;;;;;2.47;1.83;;;11.40;99.90;;;;;;12584549;28;20131;-87
2022/12/30 22:26:25;;;;;;;2.55;1.83;;;11.50;99.90;;;;;;12588806;28;20045;-87
2022/12/30 22:32:27;;;;;;;3.53;1.90;;;11.50;99.90;;;;;;12564283;28;20068;-87
2022/12/30 22:38:37;;;;;;;3.53;2.35;;;11.90;99.90;;;;;;12569688;28;20059;-87
2022/12/30 22:44:39;;;;;;;2.13;1.70;;;12.00;99.90;;;;;;12586650;28;20040;-87
2022/12/30 22:50:41;;;;;;;2.50;1.90;;;12.00;99.90;;;;;;12551892;28;20137;-86
2022/12/30 22:56:43;;;;;;;2.40;1.80;;;12.00;99.90;;;;;;12575294;28;20059;-86
2022/12/30 23:02:52;;;;;;;2.60;1.80;;;12.00;99.90;;;;;;12564236;28;20094;-87
2022/12/30 23:08:54;;;;;;;2.72;1.60;;;11.90;99.90;;;;;;12555539;28;20037;-87
2022/12/30 23:21:20;;;;;;;2.95;1.85;;;12.00;99.90;;;;;;12588936;28;20048;-87
2022/12/30 23:27:22;;;;;;;3.47;2.03;;;12.10;99.90;;;;;;12582584;28;20037;-86
2022/12/30 23:33:24;;;;;;;2.88;1.77;;;12.10;99.90;;;;;;12573267;28;20056;-87
2022/12/30 23:39:26;;;;;;;3.65;1.90;;;12.10;99.90;;;;;;12575647;28;20048;-87
2022/12/30 23:45:27;;;;;;;3.17;1.75;;;12.20;99.90;;;;;;12578975;28;20048;-86
2022/12/30 23:51:30;;;;;;;4.05;1.80;;;12.20;99.90;;;;;;12586389;28;20044;-87
2022/12/30 23:57:32;;;;;;;2.13;1.60;;;12.20;99.90;;;;;;12585019;28;20477;-87
